Kezdőlap
METAR-TAF:

METAR-TAF

Repülőterek :

Tahlequah, Oklahoma, Amerikai Egyesült Államok

földrajzi szélesség: 35-55-44N, földrajzi hosszúság: 095-00-16W, magasság: 266 m

Jelenlegi meteorológiai megfigyelések

A jelentés 31 perccel ezelõtt készült, 03:35 UTC
Szélcsend
Hőmérséklet 22°C
Páratartalom 83%
Légköri nyomás 1019 hPa
Látótávolság: 16.1 km
Derült ég

METAR: KTQH 220335Z AUTO 00000KT 10SM CLR 22/19 A3010 RMK AO2

Idő: 23:06 (04:06 UTC)


TAF: hiányzik

Meteorológiai megfigyelések és előrejelzések több, mint 4000 repülőtéren (METAR és TAF jelentéseket).

A térképen piros és sárga pontok jelzik az elérhető meteorológiai állomásokat.

Mozgassa az egeret a pont fölött, hogy megjelenjen az állomás neve.

Azután kattintson az időjárási megfigyelések és előrejelzések megtekintéséhez.

A térkép megváltoztatása: kattintson a fekete keresztel jelölt zöld gombra ráközelítéshez, a vonallal jelölt zöld gombra távolításhoz, vagy a zöld nyilakra a szomszédos térképek eléréséhez.


METAR-TAF: